createdAt,value
2017-03-14T17:14:55.919Z,51.90
2017-03-14T17:15:55.843Z,51.20
2017-03-14T17:16:55.827Z,51.30
2017-03-14T17:17:55.927Z,51.30
2017-03-14T17:18:56.689Z,51.40
2017-03-14T17:19:56.629Z,51.60
2017-03-14T17:20:56.558Z,51.50
2017-03-14T17:21:56.512Z,51.70
2017-03-14T17:22:56.436Z,51.90
2017-03-14T17:23:56.393Z,51.90
2017-03-14T17:24:56.324Z,52.00
2017-03-14T17:25:56.283Z,52.10
2017-03-14T17:26:56.269Z,52.20
2017-03-14T17:27:56.259Z,52.10
2017-03-14T17:28:56.251Z,52.20
2017-03-14T17:29:56.224Z,52.20
2017-03-14T17:30:56.189Z,52.30
2017-03-14T17:31:56.254Z,52.30
2017-03-14T17:32:57.157Z,52.40
2017-03-14T17:33:57.136Z,52.40
2017-03-14T17:34:57.086Z,52.40
2017-03-14T17:35:57.049Z,52.40
2017-03-14T17:36:57.012Z,52.50
2017-03-14T17:37:57.756Z,52.50
2017-03-14T17:38:57.718Z,52.60
2017-03-14T17:39:58.435Z,52.60
2017-03-14T17:40:58.386Z,52.70
2017-03-14T17:41:58.400Z,52.80
2017-03-14T17:42:58.346Z,53.00
2017-03-14T17:43:58.343Z,52.90
2017-03-14T17:44:58.360Z,53.00
2017-03-14T17:45:58.406Z,53.00
2017-03-14T17:46:58.368Z,53.20
2017-03-14T17:47:58.331Z,53.30
2017-03-14T17:48:58.329Z,53.20
2017-03-14T17:49:58.321Z,53.30
2017-03-14T17:50:58.370Z,53.30
2017-03-14T17:51:58.367Z,53.40
2017-03-14T17:52:58.378Z,53.50
2017-03-14T17:53:58.351Z,53.70
2017-03-14T17:54:58.335Z,53.80
2017-03-14T17:55:58.334Z,53.90
2017-03-14T17:56:58.378Z,53.90
2017-03-14T17:57:58.330Z,54.60
2017-03-14T17:58:58.261Z,54.00
2017-03-14T17:59:58.227Z,54.20
2017-03-14T18:00:58.212Z,54.30
2017-03-14T18:01:58.347Z,54.40
2017-03-14T18:02:59.123Z,54.50
2017-03-14T18:03:59.138Z,55.00
2017-03-14T18:04:59.586Z,54.50
2017-03-14T18:05:59.560Z,54.40
2017-03-14T18:06:59.607Z,54.50
2017-03-14T18:07:59.647Z,54.40
2017-03-14T18:08:59.815Z,54.50
2017-03-14T18:09:59.771Z,54.50
2017-03-14T18:10:59.723Z,54.50
2017-03-14T18:11:59.722Z,54.60
2017-03-14T18:12:59.752Z,54.60
2017-03-14T18:13:59.723Z,54.70
2017-03-14T18:14:59.687Z,54.80
2017-03-14T18:15:59.646Z,54.80
2017-03-14T18:16:59.618Z,54.90
2017-03-14T18:17:59.616Z,55.00
2017-03-14T18:18:59.546Z,55.00
2017-03-14T18:19:59.553Z,55.10
2017-03-14T18:20:59.559Z,54.90
2017-03-14T18:21:59.529Z,55.10
2017-03-14T18:22:59.514Z,55.10
2017-03-14T18:23:59.435Z,55.20
2017-03-14T18:25:06.140Z,55.20
2017-03-14T18:26:06.934Z,55.20
2017-03-14T18:27:06.887Z,55.30
2017-03-14T18:28:06.933Z,55.30
2017-03-14T18:29:06.918Z,55.40
2017-03-14T18:30:06.893Z,55.50
2017-03-14T18:31:07.463Z,55.40
2017-03-14T18:32:07.422Z,55.50
2017-03-14T18:33:07.399Z,55.50
2017-03-14T18:34:07.342Z,55.50
2017-03-14T18:35:07.336Z,55.60
2017-03-14T18:36:07.274Z,55.80
2017-03-14T18:37:08.264Z,56.00
2017-03-14T18:38:08.244Z,55.90
2017-03-14T18:39:08.674Z,55.90
2017-03-14T18:40:09.415Z,56.00
2017-03-14T18:41:10.142Z,56.00
2017-03-14T18:42:10.166Z,56.10
2017-03-14T18:43:10.127Z,57.80
2017-03-14T18:44:10.126Z,59.20
2017-03-14T18:45:10.131Z,60.90
2017-03-14T18:46:10.092Z,62.60
2017-03-14T18:47:10.351Z,64.50
2017-03-14T18:48:10.370Z,66.10
2017-03-14T18:49:11.051Z,67.60
2017-03-14T18:50:11.149Z,68.50
2017-03-14T18:51:11.186Z,69.60
2017-03-14T18:52:11.144Z,70.60
2017-03-14T18:53:11.156Z,71.20
2017-03-14T18:54:11.123Z,72.10
2017-03-14T18:55:11.111Z,72.90
2017-03-14T18:56:11.071Z,73.20
2017-03-14T18:57:11.183Z,73.50
2017-03-14T18:58:11.276Z,74.00
2017-03-14T18:59:11.894Z,74.40
2017-03-14T19:00:12.032Z,74.90
2017-03-14T19:01:12.071Z,75.50
2017-03-14T19:02:12.198Z,75.80
2017-03-14T19:03:12.236Z,76.00
2017-03-14T19:04:12.760Z,76.20
2017-03-14T19:05:12.855Z,76.60
2017-03-14T19:06:12.972Z,76.80
2017-03-14T19:07:20.181Z,76.90
2017-03-14T19:08:26.935Z,77.20
2017-03-14T19:09:29.219Z,77.10
2017-03-14T19:10:32.402Z,77.10
2017-03-14T19:11:33.896Z,77.00
2017-03-14T19:12:35.714Z,77.10
2017-03-14T19:13:36.772Z,77.30
2017-03-14T19:14:42.370Z,77.50
2017-03-14T19:15:43.608Z,77.70
2017-03-14T19:16:44.424Z,77.80
2017-03-14T19:17:46.505Z,77.80
2017-03-14T19:18:48.516Z,77.80
2017-03-14T19:19:53.414Z,77.90
2017-03-14T19:20:59.509Z,77.80
2017-03-14T19:22:02.563Z,77.80
2017-03-14T19:23:02.549Z,77.90
2017-03-14T19:24:02.562Z,78.10
2017-03-14T19:25:02.587Z,78.10
2017-03-14T19:26:02.534Z,78.30
2017-03-14T19:27:03.038Z,78.30
2017-03-14T19:28:03.181Z,78.40
2017-03-14T19:29:03.166Z,78.60
2017-03-14T19:30:03.142Z,78.70
2017-03-14T19:31:03.201Z,78.80
2017-03-14T19:32:03.232Z,78.90
2017-03-14T19:33:03.181Z,78.90
2017-03-14T19:34:03.180Z,78.90
2017-03-14T19:35:03.212Z,78.90
2017-03-14T19:36:03.923Z,78.70
2017-03-14T19:37:03.912Z,78.90
2017-03-14T19:38:03.895Z,78.90
2017-03-14T19:39:04.403Z,78.90
2017-03-14T19:40:04.387Z,78.50
2017-03-14T19:41:04.359Z,78.80
2017-03-14T19:42:04.371Z,78.70
2017-03-14T19:43:04.392Z,78.60
2017-03-14T19:44:05.163Z,79.00
2017-03-14T19:45:05.165Z,78.90
2017-03-14T19:46:05.170Z,79.00
2017-03-14T19:47:05.253Z,78.90
2017-03-14T19:48:05.307Z,78.20
2017-03-14T19:49:05.311Z,78.60
2017-03-14T19:50:05.339Z,78.60
2017-03-14T19:51:05.313Z,78.50
2017-03-14T19:52:05.311Z,78.30
2017-03-14T19:53:05.295Z,78.10
2017-03-14T19:54:05.758Z,78.20
2017-03-14T19:55:05.731Z,78.30
2017-03-14T19:56:05.705Z,78.40
2017-03-14T19:57:05.671Z,78.30
2017-03-14T19:58:05.655Z,78.20
2017-03-14T19:59:05.663Z,78.30
2017-03-14T20:00:05.650Z,78.20
2017-03-14T20:01:05.611Z,78.20
2017-03-14T20:02:05.623Z,78.20
2017-03-14T20:03:05.586Z,78.00
2017-03-14T20:04:05.570Z,77.90
2017-03-14T20:05:05.633Z,78.00
2017-03-14T20:06:05.652Z,77.80
2017-03-14T20:07:05.623Z,77.90
2017-03-14T20:08:05.614Z,78.00
2017-03-14T20:09:06.046Z,77.90
2017-03-14T20:10:06.038Z,78.00
2017-03-14T20:11:05.994Z,78.00
2017-03-14T20:12:05.982Z,77.70
2017-03-14T20:13:05.939Z,77.40
2017-03-14T20:14:05.946Z,77.60
2017-03-14T20:15:06.733Z,77.20
2017-03-14T20:16:06.723Z,77.50
2017-03-14T20:17:06.789Z,77.50
2017-03-14T20:18:07.310Z,77.60
2017-03-14T20:19:09.640Z,77.70
2017-03-14T20:20:09.660Z,78.60
2017-03-14T20:21:09.639Z,77.80
2017-03-14T20:22:09.633Z,77.80
2017-03-14T20:23:09.614Z,77.70
2017-03-14T20:24:09.579Z,77.70
2017-03-14T20:25:09.571Z,77.70
2017-03-14T20:26:09.631Z,77.60
2017-03-14T20:27:09.735Z,77.40
2017-03-14T20:28:09.775Z,77.50
2017-03-14T20:29:09.797Z,77.60
2017-03-14T20:30:09.840Z,77.40
2017-03-14T20:31:09.847Z,77.30
2017-03-14T20:32:13.412Z,76.70
2017-03-14T20:33:13.449Z,76.60
2017-03-14T20:34:13.406Z,76.80
2017-03-14T20:35:13.398Z,76.60
2017-03-14T20:36:13.820Z,76.50
2017-03-14T20:37:13.808Z,76.40
2017-03-14T20:38:13.792Z,76.20
2017-03-14T20:39:13.741Z,76.30
2017-03-14T20:40:13.765Z,76.10
2017-03-14T20:41:14.539Z,76.10
2017-03-14T20:42:14.548Z,76.40
2017-03-14T20:43:14.625Z,76.40
2017-03-14T20:44:15.358Z,76.40
2017-03-14T20:45:15.367Z,76.30
2017-03-14T20:46:15.384Z,76.30
2017-03-14T20:47:16.375Z,76.40
2017-03-14T20:48:16.619Z,76.30
2017-03-14T20:49:17.763Z,76.30
2017-03-14T20:50:17.771Z,76.20
2017-03-14T20:51:17.820Z,76.10
2017-03-14T20:52:17.889Z,76.30
2017-03-14T20:53:17.897Z,76.20
2017-03-14T20:54:17.891Z,76.40
2017-03-14T20:55:17.871Z,76.40
2017-03-14T20:56:17.983Z,76.20
2017-03-14T20:57:17.958Z,76.30
2017-03-14T20:58:17.915Z,76.20
2017-03-14T20:59:17.884Z,76.20
2017-03-14T21:00:18.090Z,76.20
2017-03-14T21:01:18.175Z,76.20
2017-03-14T21:02:18.177Z,76.30
2017-03-14T21:03:18.152Z,76.50
2017-03-14T21:04:18.279Z,76.60
2017-03-14T21:05:18.328Z,76.60
2017-03-14T21:06:18.282Z,76.10
2017-03-14T21:07:18.264Z,76.60
2017-03-14T21:08:19.039Z,76.80
2017-03-14T21:09:19.089Z,76.40
2017-03-14T21:10:19.105Z,76.30
2017-03-14T21:11:21.591Z,75.60
2017-03-14T21:12:22.346Z,75.60
2017-03-14T21:13:22.302Z,75.40
2017-03-14T21:14:22.284Z,75.70
2017-03-14T21:15:23.334Z,75.60
2017-03-14T21:16:24.113Z,75.10
2017-03-14T21:17:24.121Z,75.40
2017-03-14T21:18:24.087Z,75.40
2017-03-14T21:19:24.093Z,75.40
2017-03-14T21:20:24.086Z,75.40
2017-03-14T21:21:24.839Z,75.60
2017-03-14T21:22:24.784Z,75.40
2017-03-14T21:23:24.733Z,75.40
2017-03-14T21:24:24.728Z,75.50
2017-03-14T21:25:24.704Z,75.50
2017-03-14T21:26:25.185Z,75.50
2017-03-14T21:27:25.201Z,75.40
2017-03-14T21:28:25.151Z,75.50
2017-03-14T21:29:25.149Z,75.60
2017-03-14T21:30:25.111Z,75.60
2017-03-14T21:31:25.297Z,75.80
2017-03-14T21:32:25.306Z,75.80
2017-03-14T21:33:25.808Z,76.00
2017-03-14T21:34:25.834Z,76.10
2017-03-14T21:35:26.588Z,76.30
2017-03-14T21:36:26.538Z,76.30
2017-03-14T21:37:26.514Z,76.40
2017-03-14T21:38:26.482Z,76.40
2017-03-14T21:39:26.453Z,76.50
2017-03-14T21:40:26.650Z,76.50
2017-03-14T21:41:27.055Z,76.60
2017-03-14T21:42:27.020Z,76.50
2017-03-14T21:43:26.991Z,76.60
2017-03-14T21:44:27.027Z,76.60
2017-03-14T21:45:27.046Z,76.50
2017-03-14T21:46:28.045Z,76.30
2017-03-14T21:47:28.006Z,76.10
2017-03-14T21:48:28.752Z,76.00
2017-03-14T21:49:28.819Z,76.10
2017-03-14T21:50:28.799Z,76.30
2017-03-14T21:51:28.762Z,76.40
2017-03-14T21:52:28.731Z,76.40
2017-03-14T21:53:28.704Z,76.50
2017-03-14T21:54:28.716Z,76.70
2017-03-14T21:55:28.711Z,76.70
2017-03-14T21:56:29.435Z,76.50
2017-03-14T21:57:29.394Z,76.70
2017-03-14T21:58:29.352Z,76.80
2017-03-14T21:59:30.053Z,77.00
2017-03-14T22:00:30.162Z,76.80
2017-03-14T22:01:30.154Z,76.80
2017-03-14T22:02:30.154Z,76.90
2017-03-14T22:03:30.158Z,76.90
2017-03-14T22:04:30.130Z,77.10
2017-03-14T22:05:30.167Z,77.20
2017-03-14T22:06:30.107Z,77.20
2017-03-14T22:07:30.082Z,77.40
2017-03-14T22:08:30.567Z,77.30
2017-03-14T22:09:30.650Z,77.20
2017-03-14T22:10:30.650Z,77.40
2017-03-14T22:11:30.653Z,77.50
2017-03-14T22:12:31.412Z,77.50
2017-03-14T22:13:31.390Z,77.60
2017-03-14T22:14:32.103Z,77.50
2017-03-14T22:15:32.156Z,77.60
2017-03-14T22:16:32.110Z,77.60
2017-03-14T22:17:32.138Z,77.80
2017-03-14T22:18:33.431Z,77.80
2017-03-14T22:19:33.387Z,78.10
2017-03-14T22:20:33.456Z,78.20
2017-03-14T22:21:34.149Z,78.20
2017-03-14T22:22:34.146Z,78.40
2017-03-14T22:23:34.206Z,78.60
2017-03-14T22:24:34.182Z,78.50
2017-03-14T22:25:34.179Z,78.20
2017-03-14T22:26:34.095Z,78.50
2017-03-14T22:27:34.846Z,78.50
2017-03-14T22:28:35.582Z,78.60
2017-03-14T22:29:35.522Z,78.70
2017-03-14T22:30:36.044Z,78.90
2017-03-14T22:31:36.864Z,79.00
2017-03-14T22:32:36.808Z,79.10
2017-03-14T22:33:36.792Z,79.10
2017-03-14T22:34:36.822Z,79.90
2017-03-14T22:35:36.841Z,79.00
2017-03-14T22:36:36.834Z,78.90
2017-03-14T22:37:36.827Z,79.50
2017-03-14T22:38:37.033Z,79.60
2017-03-14T22:39:36.968Z,79.70
2017-03-14T22:40:36.998Z,79.80
2017-03-14T22:41:37.019Z,80.00
2017-03-14T22:42:37.107Z,79.90
2017-03-14T22:43:37.263Z,80.10
2017-03-14T22:44:37.226Z,80.30
2017-03-14T22:45:37.167Z,80.30
2017-03-14T22:46:38.908Z,80.30
2017-03-14T22:47:38.894Z,80.30
2017-03-14T22:48:38.862Z,80.30
2017-03-14T22:49:38.842Z,80.40
2017-03-14T22:50:38.783Z,80.50
2017-03-14T22:51:38.766Z,80.60
2017-03-14T22:52:38.739Z,80.60
2017-03-14T22:53:41.578Z,80.50
2017-03-14T22:54:41.556Z,80.40
2017-03-14T22:55:41.537Z,80.20
2017-03-14T22:56:41.540Z,80.20
2017-03-14T22:57:41.516Z,80.10
2017-03-14T22:58:41.491Z,79.90
2017-03-14T22:59:41.475Z,79.90
2017-03-14T23:00:41.495Z,79.80
2017-03-14T23:01:41.466Z,80.00
2017-03-14T23:02:41.446Z,80.10
2017-03-14T23:03:44.305Z,80.20
2017-03-14T23:04:44.825Z,80.20
2017-03-14T23:05:44.767Z,80.20
2017-03-14T23:06:46.859Z,80.20
2017-03-14T23:07:46.818Z,80.20
2017-03-14T23:08:48.010Z,80.30
2017-03-14T23:09:47.952Z,80.10
2017-03-14T23:10:47.974Z,80.10
2017-03-14T23:11:47.922Z,80.00
2017-03-14T23:12:49.131Z,80.00
2017-03-14T23:13:49.151Z,80.10
2017-03-14T23:14:49.151Z,80.10
2017-03-14T23:15:49.143Z,80.10
2017-03-14T23:16:49.147Z,80.20
2017-03-14T23:17:49.318Z,80.20
2017-03-14T23:18:49.325Z,81.00
2017-03-14T23:19:49.299Z,80.10
2017-03-14T23:20:49.623Z,80.10
2017-03-14T23:21:50.350Z,79.90
2017-03-14T23:22:50.473Z,79.90
2017-03-14T23:23:50.418Z,79.90
2017-03-14T23:24:55.399Z,79.70
2017-03-14T23:25:57.671Z,79.60
2017-03-14T23:26:58.509Z,79.70
2017-03-14T23:27:58.463Z,79.50
2017-03-14T23:28:58.665Z,79.60
2017-03-14T23:29:58.620Z,79.50
2017-03-14T23:30:59.361Z,80.20
2017-03-14T23:32:00.051Z,79.50
2017-03-14T23:33:00.006Z,79.30
2017-03-14T23:34:00.213Z,79.20
2017-03-14T23:34:59.401Z,79.10
2017-03-14T23:35:59.384Z,79.30
2017-03-14T23:37:00.495Z,79.10
2017-03-14T23:38:00.570Z,79.00
2017-03-14T23:39:01.063Z,79.00
2017-03-14T23:40:01.054Z,79.30
2017-03-14T23:41:01.810Z,79.50
2017-03-14T23:42:02.055Z,79.50
2017-03-14T23:43:02.634Z,79.50
2017-03-14T23:44:02.718Z,79.60
2017-03-14T23:45:03.643Z,79.70
2017-03-14T23:46:03.700Z,79.90
2017-03-14T23:47:03.679Z,79.80
2017-03-14T23:48:03.664Z,80.00
2017-03-14T23:49:03.679Z,80.00
2017-03-14T23:50:03.681Z,80.00
2017-03-14T23:51:03.631Z,80.00
2017-03-14T23:52:03.624Z,79.80
2017-03-14T23:53:04.342Z,79.90
2017-03-14T23:54:04.713Z,80.10
2017-03-14T23:55:04.700Z,80.40
2017-03-14T23:56:04.723Z,80.80
2017-03-14T23:57:05.064Z,81.10
2017-03-14T23:58:05.198Z,81.50
2017-03-14T23:59:05.927Z,81.70
